CheckWX is a tool to help pilots better visualize weather data.  It is not intended as a substitute for an official pre-flight weather briefing.

16:33:31 UTC

LJLJ TAF
Ljubljana Jože Pučnik Airport
Ljubljana, Slovenia
TAF LJLJ 201400Z 2015/2115 28003KT 9999 FEW030 SCT060 TEMPO 2015/2018 30008KT -RA FEW030 BKN050 PROB40 TEMPO 2018/2112 BKN050

Oct-20@
15:00 UTC

Oct-20 @ 15:00 UTC

Oct-21@
15:00 UTC

Oct-21 @ 15:00 UTC

TAF LJLJ 201400Z 2015/2115 28003KT 9999 FEW030 SCT060
Wind
  • 280° at 3 KTS
Cloud Levels
  • Few at 3,000' AGL
  • Scattered at 6,000' AGL

Oct-20@
15:00 UTC

Oct-20 @ 15:00 UTC

Oct-20@
18:00 UTC

Oct-20 @ 18:00 UTC

TEMPO 2015/2018 30008KT -RA FEW030 BKN050

Temporary

Temporary Changes expected for less than half the time period

Wind
  • 300° at 8 KTS
Conditions
Light Rain
Cloud Levels
  • Few at 3,000' AGL
  • Broken at 5,000' AGL

Oct-20@
18:00 UTC

Oct-20 @ 18:00 UTC

Oct-21@
12:00 UTC

Oct-21 @ 12:00 UTC

PROB40 TEMPO 2018/2112 BKN050

Temporary - 40% Likelihood

Temporary - 40% Likelihood during this time.

Cloud Levels
  • Broken at 5,000' AGL